Time;durP1;ratioP1;P1;durP2;ratioP2;P2;SDS_P1;SDS_P2;PMS_P1;PMS_P2;Temp;Humidity;BMP_temperature;BMP_pressure;BME280_temperature;BME280_humidity;BME280_pressure;Samples;Min_cycle;Max_cycle;Signal;HPM_P1;HPM_P2
2023/08/15 00:01:58;;;;;;;11.27;7.93;;;16.80;99.90;;;;;;5004627;28;20057;-74
2023/08/15 00:04:24;;;;;;;12.27;10.02;;;16.80;99.90;;;;;;4988197;28;20049;-77
2023/08/15 00:06:50;;;;;;;15.85;10.25;;;17.00;99.90;;;;;;4985027;28;20053;-74
2023/08/15 00:09:16;;;;;;;14.90;9.60;;;16.80;99.90;;;;;;5004288;28;20110;-75
2023/08/15 00:11:41;;;;;;;13.10;10.00;;;16.80;99.90;;;;;;4995644;28;20480;-72
2023/08/15 00:14:07;;;;;;;14.45;10.70;;;16.80;99.90;;;;;;4991151;28;20046;-73
2023/08/15 00:16:33;;;;;;;12.10;9.75;;;16.80;99.90;;;;;;5003972;28;20137;-73
2023/08/15 00:18:59;;;;;;;15.27;9.15;;;16.90;99.90;;;;;;4988183;28;20705;-73
2023/08/15 00:21:25;;;;;;;15.95;10.30;;;16.90;99.90;;;;;;5004665;28;20055;-74
2023/08/15 00:23:51;;;;;;;14.77;8.95;;;16.90;99.90;;;;;;5003517;28;20128;-72
2023/08/15 00:26:16;;;;;;;16.05;9.20;;;16.90;99.90;;;;;;5003064;28;20045;-74
2023/08/15 00:28:42;;;;;;;12.65;9.05;;;16.90;99.90;;;;;;5000568;28;20508;-75
2023/08/15 00:31:08;;;;;;;14.85;9.45;;;16.90;99.90;;;;;;5015821;28;20046;-74
2023/08/15 00:33:33;;;;;;;11.82;8.57;;;16.90;99.90;;;;;;4987828;28;20050;-75
2023/08/15 00:35:59;;;;;;;8.73;6.05;;;16.60;99.90;;;;;;4987321;28;20053;-75
2023/08/15 00:38:25;;;;;;;17.63;5.75;;;16.80;99.90;;;;;;5007235;28;20056;-73
2023/08/15 00:40:51;;;;;;;10.95;5.28;;;16.80;99.90;;;;;;5004018;28;20045;-74
2023/08/15 00:43:18;;;;;;;10.68;6.22;;;16.70;99.90;;;;;;5003650;28;20045;-74
2023/08/15 00:45:44;;;;;;;8.65;5.65;;;16.70;99.90;;;;;;5017560;28;20521;-74
2023/08/15 00:48:11;;;;;;;10.20;6.22;;;16.60;99.90;;;;;;5003423;28;20227;-74
2023/08/15 00:50:39;;;;;;;12.32;5.57;;;16.50;99.90;;;;;;5004126;28;20143;-74
2023/08/15 00:53:06;;;;;;;9.57;5.75;;;16.50;99.90;;;;;;5009504;28;20118;-74
2023/08/15 00:55:33;;;;;;;11.30;7.72;;;16.50;99.90;;;;;;4997746;28;20065;-74
2023/08/15 00:57:59;;;;;;;11.48;9.35;;;16.40;99.90;;;;;;4987189;28;20091;-75
2023/08/15 01:00:26;;;;;;;11.80;7.65;;;16.40;99.90;;;;;;5004071;28;20138;-73
2023/08/15 01:02:52;;;;;;;12.93;10.50;;;16.40;99.90;;;;;;5003312;28;20808;-72
2023/08/15 01:05:20;;;;;;;15.60;10.93;;;16.40;99.90;;;;;;4987258;28;20073;-81
2023/08/15 01:07:46;;;;;;;19.17;11.80;;;16.40;99.90;;;;;;5003581;28;20053;-75
2023/08/15 01:10:12;;;;;;;14.98;11.02;;;16.40;99.90;;;;;;4986935;28;20089;-72
2023/08/15 01:12:48;;;;;;;17.80;10.73;;;16.50;99.90;;;;;;5002193;28;20141;-72
2023/08/15 01:15:23;;;;;;;14.55;11.05;;;16.50;99.90;;;;;;4986809;28;20065;-73
2023/08/15 01:18:05;;;;;;;15.68;10.95;;;16.60;99.90;;;;;;5001497;28;20053;-74
2023/08/15 01:20:37;;;;;;;18.17;12.82;;;16.60;99.90;;;;;;4972812;28;20057;-75
2023/08/15 01:23:07;;;;;;;14.98;10.10;;;16.70;99.90;;;;;;4986321;28;20088;-71
2023/08/15 01:25:40;;;;;;;18.58;11.90;;;16.70;99.90;;;;;;4986947;28;20089;-73
2023/08/15 01:28:13;;;;;;;14.65;10.10;;;16.70;99.90;;;;;;5019557;28;20045;-72
2023/08/15 01:31:07;;;;;;;12.73;9.70;;;16.80;99.90;;;;;;4990149;28;20059;-75
2023/08/15 01:33:40;;;;;;;17.52;9.80;;;16.80;99.90;;;;;;5003187;28;20089;-75
2023/08/15 01:36:16;;;;;;;15.77;10.68;;;16.80;99.90;;;;;;4986626;28;20083;-74
2023/08/15 01:38:44;;;;;;;14.48;10.77;;;16.80;99.90;;;;;;5001474;28;20056;-74
2023/08/15 01:41:14;;;;;;;16.80;10.55;;;16.80;99.90;;;;;;5002530;28;20049;-75
2023/08/15 01:43:43;;;;;;;18.40;10.35;;;16.80;99.90;;;;;;4980109;28;20049;-76
2023/08/15 01:46:09;;;;;;;13.73;11.57;;;16.80;99.90;;;;;;5002551;28;20042;-76
2023/08/15 01:48:40;;;;;;;18.77;10.45;;;16.80;99.90;;;;;;4986504;28;20627;-75
2023/08/15 01:51:06;;;;;;;18.42;10.45;;;16.80;99.90;;;;;;5002715;28;20132;-75
2023/08/15 01:53:31;;;;;;;16.77;9.70;;;16.80;99.90;;;;;;5014536;28;20055;-76
2023/08/15 01:55:57;;;;;;;15.10;10.25;;;16.80;99.90;;;;;;4986308;28;20181;-76
2023/08/15 01:58:23;;;;;;;15.93;10.52;;;16.80;99.90;;;;;;5014815;28;20050;-76
2023/08/15 02:00:49;;;;;;;16.10;10.30;;;16.80;99.90;;;;;;5002713;28;20045;-75
2023/08/15 02:03:14;;;;;;;16.58;9.80;;;16.80;99.90;;;;;;4986884;28;20096;-73
2023/08/15 02:05:40;;;;;;;18.55;9.63;;;16.80;99.90;;;;;;5003042;28;20499;-75
2023/08/15 02:08:06;;;;;;;16.75;10.18;;;16.80;99.90;;;;;;4986845;28;20485;-75
2023/08/15 02:10:32;;;;;;;16.42;9.90;;;16.90;99.90;;;;;;5002698;28;20067;-75
2023/08/15 02:12:57;;;;;;;18.30;10.32;;;16.90;99.90;;;;;;5002338;28;20049;-75
2023/08/15 02:15:23;;;;;;;16.55;10.65;;;16.90;99.90;;;;;;4993545;28;20103;-75
2023/08/15 02:17:49;;;;;;;12.32;10.00;;;16.90;99.90;;;;;;5006053;28;20115;-76
2023/08/15 02:20:15;;;;;;;15.38;10.70;;;16.90;99.90;;;;;;5009633;28;20127;-74
2023/08/15 02:22:41;;;;;;;16.85;10.38;;;;;;;;;;4984165;28;20719;-73
2023/08/15 02:25:07;;;;;;;15.70;10.15;;;16.90;99.90;;;;;;5023166;28;20497;-74
2023/08/15 02:27:33;;;;;;;17.20;11.27;;;16.90;99.90;;;;;;5014129;28;20119;-74
2023/08/15 02:29:58;;;;;;;15.50;11.40;;;16.90;99.90;;;;;;5006497;28;20053;-74
2023/08/15 02:32:24;;;;;;;16.90;11.70;;;17.00;99.90;;;;;;5006382;28;20078;-74
2023/08/15 02:34:50;;;;;;;15.23;10.60;;;17.00;99.90;;;;;;5006188;28;20655;-76
2023/08/15 02:37:16;;;;;;;12.45;10.63;;;17.00;99.90;;;;;;5005304;28;20123;-72
2023/08/15 02:39:42;;;;;;;17.88;10.60;;;17.00;99.90;;;;;;5004786;28;20535;-74
2023/08/15 02:42:08;;;;;;;16.33;12.02;;;17.10;99.90;;;;;;5008883;28;20791;-74
2023/08/15 02:44:33;;;;;;;20.90;13.32;;;17.10;99.90;;;;;;4989692;28;20104;-74
2023/08/15 02:46:59;;;;;;;16.52;12.10;;;17.00;99.90;;;;;;4989117;28;20084;-73
2023/08/15 02:49:25;;;;;;;16.33;12.88;;;17.10;99.90;;;;;;4997906;28;20141;-76
2023/08/15 02:51:50;;;;;;;16.83;13.85;;;17.10;99.90;;;;;;4989574;28;20132;-73
2023/08/15 02:54:16;;;;;;;20.50;13.32;;;17.00;99.90;;;;;;5018505;28;20049;-76
2023/08/15 02:56:42;;;;;;;24.45;15.55;;;17.10;99.90;;;;;;5005593;28;20132;-76
2023/08/15 02:59:08;;;;;;;18.30;14.50;;;17.10;99.90;;;;;;5010292;28;20142;-74
2023/08/15 03:01:33;;;;;;;26.48;16.55;;;17.10;99.90;;;;;;4988946;28;20049;-73
2023/08/15 03:03:59;;;;;;;22.45;16.73;;;17.30;99.90;;;;;;5021683;28;20049;-74
2023/08/15 03:06:25;;;;;;;20.30;15.65;;;17.20;99.90;;;;;;5012189;28;20126;-75
2023/08/15 03:08:51;;;;;;;20.58;15.63;;;17.20;99.90;;;;;;5005625;28;20084;-77
2023/08/15 03:11:16;;;;;;;19.75;15.23;;;17.20;99.90;;;;;;5012178;28;20068;-73
2023/08/15 03:13:42;;;;;;;20.95;15.40;;;17.20;99.90;;;;;;5005513;28;20064;-74
2023/08/15 03:16:08;;;;;;;21.45;15.05;;;17.20;99.90;;;;;;4987162;28;20060;-76
2023/08/15 03:18:34;;;;;;;21.30;15.15;;;17.40;99.90;;;;;;5017229;28;20116;-75
2023/08/15 03:21:04;;;;;;;19.58;15.23;;;17.20;99.90;;;;;;5007267;28;20061;-74
2023/08/15 03:23:30;;;;;;;20.17;15.82;;;17.20;99.90;;;;;;4992093;28;20075;-75
2023/08/15 03:26:03;;;;;;;18.17;15.30;;;17.20;99.90;;;;;;5005385;28;20054;-75
2023/08/15 03:28:29;;;;;;;20.73;17.38;;;17.10;99.90;;;;;;4983593;28;20053;-74
2023/08/15 03:30:55;;;;;;;19.52;15.55;;;17.10;99.90;;;;;;4993422;28;20057;-75
2023/08/15 03:33:22;;;;;;;19.60;16.45;;;17.10;99.90;;;;;;5012402;28;20057;-74
2023/08/15 03:35:49;;;;;;;19.48;17.10;;;17.10;99.90;;;;;;5004778;28;20059;-73
2023/08/15 03:38:16;;;;;;;18.90;15.85;;;17.10;99.90;;;;;;5004033;28;20092;-75
2023/08/15 03:40:47;;;;;;;19.83;15.07;;;17.10;99.90;;;;;;5004423;28;20107;-73
2023/08/15 03:43:13;;;;;;;21.00;15.98;;;17.10;99.90;;;;;;5004151;28;20498;-73
2023/08/15 03:45:40;;;;;;;21.00;17.52;;;17.10;99.90;;;;;;4988527;28;20049;-74
2023/08/15 03:48:07;;;;;;;22.02;16.95;;;17.20;99.90;;;;;;5004504;28;20128;-74
2023/08/15 03:50:34;;;;;;;20.73;18.52;;;17.20;99.90;;;;;;5004989;28;20053;-74
2023/08/15 03:53:00;;;;;;;24.65;19.52;;;17.20;99.90;;;;;;4987780;28;20064;-77
2023/08/15 03:55:27;;;;;;;27.17;19.70;;;17.20;99.90;;;;;;5003580;28;20056;-76
2023/08/15 03:57:52;;;;;;;24.75;18.83;;;17.40;99.90;;;;;;4988062;28;20058;-73
2023/08/15 04:00:18;;;;;;;24.35;19.80;;;17.20;99.90;;;;;;5014001;28;20049;-76
2023/08/15 04:02:45;;;;;;;24.38;19.35;;;17.30;99.90;;;;;;5001158;28;20045;-73
2023/08/15 04:05:11;;;;;;;21.20;18.08;;;17.30;99.90;;;;;;4987534;28;20054;-73
2023/08/15 04:07:37;;;;;;;19.45;17.52;;;17.40;99.90;;;;;;5000763;28;20683;-74
2023/08/15 04:10:04;;;;;;;24.42;19.05;;;17.40;99.90;;;;;;5004491;28;20438;-75
2023/08/15 04:12:30;;;;;;;26.08;19.27;;;17.40;99.90;;;;;;5003882;28;20128;-75
2023/08/15 04:14:56;;;;;;;21.50;17.80;;;17.40;99.90;;;;;;5004479;28;20159;-72
2023/08/15 04:17:21;;;;;;;21.23;18.85;;;17.40;99.90;;;;;;5004464;28;20045;-74
2023/08/15 04:19:47;;;;;;;21.25;18.08;;;17.30;99.90;;;;;;5009632;28;20435;-74
2023/08/15 04:22:13;;;;;;;20.10;17.88;;;18.50;99.90;;;;;;5003733;28;20068;-76
2023/08/15 04:24:38;;;;;;;21.90;16.48;;;17.40;99.90;;;;;;5004129;28;20569;-75
2023/08/15 04:27:06;;;;;;;23.38;18.38;;;17.40;99.90;;;;;;5003878;28;20091;-75
2023/08/15 04:29:32;;;;;;;26.42;20.75;;;17.50;99.90;;;;;;5003954;28;20053;-76
2023/08/15 04:31:58;;;;;;;24.20;18.90;;;17.50;99.90;;;;;;4987805;28;20148;-74
2023/08/15 04:34:24;;;;;;;20.60;18.45;;;17.50;99.90;;;;;;5003386;28;20128;-78
2023/08/15 04:36:50;;;;;;;23.92;18.25;;;17.60;99.90;;;;;;4986016;28;20085;-76
2023/08/15 04:39:18;;;;;;;23.92;18.67;;;17.60;99.90;;;;;;5003272;28;20178;-76
2023/08/15 04:41:44;;;;;;;22.38;18.58;;;17.60;99.90;;;;;;4986944;28;20076;-74
2023/08/15 04:44:13;;;;;;;23.50;19.20;;;;;;;;;;4986568;28;20187;-73
2023/08/15 04:46:38;;;;;;;24.88;19.67;;;17.70;99.90;;;;;;5004222;28;20160;-70
2023/08/15 04:49:04;;;;;;;27.00;20.92;;;17.70;99.90;;;;;;5004100;28;20136;-72
2023/08/15 04:51:30;;;;;;;26.17;19.90;;;17.80;99.90;;;;;;5004222;22;20071;-73
2023/08/15 04:53:56;;;;;;;22.17;19.75;;;17.70;99.90;;;;;;4998455;28;20085;-73
2023/08/15 04:56:22;;;;;;;28.42;19.98;;;17.80;99.90;;;;;;5001121;28;20050;-81
2023/08/15 04:58:48;;;;;;;24.40;19.30;;;17.80;99.90;;;;;;5016141;23;20053;-73
2023/08/15 05:01:14;;;;;;;29.67;22.77;;;17.90;99.90;;;;;;5023831;28;20315;-73
2023/08/15 05:03:52;;;;;;;27.00;22.00;;;17.90;99.90;;;;;;5018364;22;20062;-72
2023/08/15 05:06:25;;;;;;;26.65;21.25;;;17.90;99.90;;;;;;4978603;28;20050;-72
2023/08/15 05:08:51;;;;;;;23.83;21.05;;;17.90;99.90;;;;;;4964858;28;20620;-73
2023/08/15 05:11:16;;;;;;;24.13;19.48;;;18.00;99.90;;;;;;4970198;28;20575;-72
2023/08/15 05:13:42;;;;;;;24.75;21.38;;;18.00;99.90;;;;;;4946960;28;20046;-74
2023/08/15 05:16:08;;;;;;;30.50;23.70;;;18.00;99.90;;;;;;4965361;28;20088;-71
2023/08/15 05:18:34;;;;;;;24.35;21.65;;;18.10;99.90;;;;;;5007007;23;20079;-72
2023/08/15 05:20:59;;;;;;;28.95;20.25;;;18.10;99.90;;;;;;5038555;28;20053;-71
2023/08/15 05:23:25;;;;;;;24.73;19.45;;;18.20;99.90;;;;;;5022795;28;20135;-71
2023/08/15 05:25:51;;;;;;;21.85;18.20;;;18.20;99.90;;;;;;5037558;28;20822;-72
2023/08/15 05:28:17;;;;;;;22.98;19.08;;;18.30;99.90;;;;;;5022147;28;20136;-73
2023/08/15 05:30:43;;;;;;;22.35;18.88;;;18.30;99.90;;;;;;5036232;23;20097;-71
2023/08/15 05:33:09;;;;;;;23.77;18.40;;;18.30;99.90;;;;;;5001001;28;20244;-71
2023/08/15 05:35:35;;;;;;;20.15;17.05;;;18.40;99.90;;;;;;4996926;28;20499;-72
2023/08/15 05:38:01;;;;;;;22.08;17.58;;;18.40;99.90;;;;;;4998184;28;20049;-71
2023/08/15 05:40:27;;;;;;;22.15;17.30;;;18.40;99.90;;;;;;4984735;28;20318;-72
2023/08/15 05:42:52;;;;;;;21.25;17.13;;;18.50;99.90;;;;;;5022808;23;20245;-70
2023/08/15 05:45:18;;;;;;;17.83;14.30;;;21.60;99.90;;;;;;5021515;28;20060;-72
2023/08/15 05:47:44;;;;;;;20.33;15.63;;;18.60;99.90;;;;;;5020889;28;20052;-71
2023/08/15 05:50:10;;;;;;;18.17;14.65;;;18.60;99.90;;;;;;5039395;28;20044;-72
2023/08/15 05:52:36;;;;;;;19.33;15.07;;;18.70;99.90;;;;;;5034792;28;20048;-72
2023/08/15 05:55:01;;;;;;;23.08;15.25;;;18.70;99.90;;;;;;5036765;28;20783;-71
2023/08/15 05:57:27;;;;;;;16.13;13.45;;;18.80;99.90;;;;;;5023041;28;20041;-72
2023/08/15 05:59:53;;;;;;;18.55;13.05;;;18.90;99.90;;;;;;5024999;28;20482;-73
2023/08/15 06:02:19;;;;;;;16.92;13.20;;;18.80;99.90;;;;;;5025040;28;20045;-72
2023/08/15 06:04:45;;;;;;;19.15;13.55;;;18.90;99.90;;;;;;5041274;28;20048;-72
2023/08/15 06:07:14;;;;;;;16.52;11.82;;;18.90;99.90;;;;;;5022429;28;20064;-72
2023/08/15 06:09:40;;;;;;;16.65;13.73;;;18.90;99.90;;;;;;5010289;28;20053;-71
2023/08/15 06:12:06;;;;;;;17.75;12.00;;;18.70;99.90;;;;;;5043418;28;20411;-73
2023/08/15 06:14:33;;;;;;;13.25;11.90;;;18.90;99.90;;;;;;5014425;22;20057;-74
2023/08/15 06:16:59;;;;;;;13.23;11.70;;;18.80;99.90;;;;;;5030029;28;20057;-75
2023/08/15 06:19:25;;;;;;;13.52;11.20;;;18.90;99.90;;;;;;5019267;28;20402;-74
2023/08/15 06:21:51;;;;;;;14.18;10.98;;;18.90;99.90;;;;;;4999066;28;20038;-76
2023/08/15 06:24:17;;;;;;;13.35;11.15;;;18.90;99.90;;;;;;5015982;28;20056;-74
2023/08/15 06:26:42;;;;;;;20.13;12.80;;;18.80;99.90;;;;;;5006175;28;20114;-75
2023/08/15 06:29:08;;;;;;;14.52;11.05;;;18.80;99.90;;;;;;5004742;28;20130;-76
2023/08/15 06:31:35;;;;;;;16.75;11.05;;;18.80;99.90;;;;;;5023022;28;20060;-75
2023/08/15 06:34:02;;;;;;;13.75;9.73;;;19.10;99.90;;;;;;5020436;28;20108;-75
2023/08/15 06:36:28;;;;;;;16.25;10.45;;;19.20;99.90;;;;;;5006980;28;20033;-75
2023/08/15 06:38:55;;;;;;;15.77;9.38;;;19.40;99.90;;;;;;5023429;28;20061;-76
2023/08/15 06:41:21;;;;;;;15.02;9.15;;;19.50;99.90;;;;;;5022856;28;20505;-75
2023/08/15 06:43:47;;;;;;;16.10;8.73;;;19.50;99.90;;;;;;5006057;28;20045;-76
2023/08/15 06:46:16;;;;;;;11.63;7.63;;;20.50;99.90;;;;;;5012845;22;20525;-79
2023/08/15 06:48:42;;;;;;;11.18;7.10;;;20.20;99.90;;;;;;5010553;28;20058;-80
2023/08/15 06:51:08;;;;;;;7.75;5.60;;;20.90;99.90;;;;;;4971092;28;20051;-77
2023/08/15 06:53:33;;;;;;;8.35;5.32;;;21.80;99.90;;;;;;4983401;28;20096;-79
2023/08/15 06:55:59;;;;;;;9.20;4.70;;;22.70;99.90;;;;;;4970080;28;20053;-75
2023/08/15 06:58:26;;;;;;;9.90;4.82;;;26.50;99.90;;;;;;4983418;28;20053;-78
2023/08/15 07:00:51;;;;;;;10.55;3.85;;;24.30;99.90;;;;;;4969705;28;20674;-80
2023/08/15 07:03:18;;;;;;;5.80;2.63;;;24.80;99.90;;;;;;4987721;28;20045;-81
2023/08/15 07:05:45;;;;;;;6.05;2.70;;;25.70;99.90;;;;;;4987086;28;20046;-78
2023/08/15 07:08:14;;;;;;;7.63;2.80;;;25.90;99.90;;;;;;4994487;28;20053;-77
2023/08/15 07:10:40;;;;;;;7.05;2.72;;;25.90;99.90;;;;;;4990658;28;20077;-80
2023/08/15 07:13:06;;;;;;;6.55;2.30;;;26.20;99.90;;;;;;4969164;28;20980;-77
2023/08/15 07:15:32;;;;;;;5.20;2.10;;;26.60;99.90;;;;;;4986903;28;20105;-81
2023/08/15 07:17:59;;;;;;;5.68;1.55;;;26.80;99.90;;;;;;4986664;28;20057;-75
2023/08/15 07:20:25;;;;;;;4.20;1.77;;;27.30;99.90;;;;;;4971012;28;20056;-78
2023/08/15 07:22:51;;;;;;;5.20;2.08;;;27.70;99.90;;;;;;4986648;28;20045;-75
2023/08/15 07:25:17;;;;;;;8.23;1.83;;;28.10;99.00;;;;;;4987374;28;20048;-76
2023/08/15 07:27:42;;;;;;;5.25;1.33;;;28.90;97.80;;;;;;4971931;28;20858;-79
2023/08/15 07:30:12;;;;;;;6.00;1.42;;;28.90;97.10;;;;;;4986501;28;20136;-78
2023/08/15 07:32:38;;;;;;;5.75;1.70;;;29.10;95.90;;;;;;4986199;28;20154;-75
2023/08/15 07:35:05;;;;;;;5.95;1.80;;;28.20;95.70;;;;;;4963841;28;20093;-76
2023/08/15 07:37:31;;;;;;;6.63;1.75;;;28.10;95.40;;;;;;4995031;28;20057;-73
2023/08/15 07:40:08;;;;;;;5.10;1.33;;;27.70;96.00;;;;;;5007732;28;20205;-78
2023/08/15 07:42:34;;;;;;;5.60;1.27;;;27.90;95.90;;;;;;4995310;28;20096;-73
2023/08/15 07:45:00;;;;;;;5.63;0.95;;;28.10;95.30;;;;;;4986274;28;20565;-75
2023/08/15 07:47:26;;;;;;;3.67;1.00;;;28.50;94.90;;;;;;4987501;28;20054;-73
2023/08/15 07:50:11;;;;;;;7.30;1.20;;;28.60;94.20;;;;;;4988348;28;20057;-75
2023/08/15 07:52:37;;;;;;;3.65;1.00;;;28.70;93.40;;;;;;4985394;28;20057;-74
2023/08/15 07:55:03;;;;;;;5.03;1.10;;;28.70;93.60;;;;;;4986159;28;20062;-81
2023/08/15 07:57:29;;;;;;;5.07;1.30;;;28.70;93.50;;;;;;4969365;28;20077;-70
2023/08/15 07:59:54;;;;;;;5.18;1.17;;;28.50;93.20;;;;;;4985683;28;20180;-75
2023/08/15 08:02:20;;;;;;;6.65;1.00;;;28.20;93.10;;;;;;4969580;28;20137;-72
2023/08/15 08:04:46;;;;;;;6.43;1.05;;;27.70;93.20;;;;;;4998894;28;20053;-70
2023/08/15 08:07:11;;;;;;;7.25;2.22;;;26.50;94.50;;;;;;4975766;28;20050;-75
2023/08/15 08:09:37;;;;;;;3.15;1.10;;;26.30;93.90;;;;;;4990517;28;20216;-75
2023/08/15 08:12:03;;;;;;;4.72;1.10;;;25.90;95.00;;;;;;4974865;28;20050;-79
2023/08/15 08:14:29;;;;;;;5.57;1.33;;;25.30;95.60;;;;;;4967940;28;20521;-75
2023/08/15 08:16:55;;;;;;;7.13;2.00;;;25.00;96.20;;;;;;4984151;28;20054;-73
2023/08/15 08:19:20;;;;;;;7.35;1.20;;;24.90;96.80;;;;;;4987600;28;20052;-74
2023/08/15 08:21:46;;;;;;;4.00;1.30;;;25.50;98.50;;;;;;4994602;28;20045;-74
2023/08/15 08:24:12;;;;;;;4.55;1.08;;;25.50;98.30;;;;;;4985900;28;20054;-76
2023/08/15 08:26:38;;;;;;;4.28;0.93;;;25.30;97.10;;;;;;4986437;28;20104;-74
2023/08/15 08:29:04;;;;;;;5.47;0.70;;;25.50;98.50;;;;;;4985839;28;20057;-74
2023/08/15 08:31:30;;;;;;;6.95;0.90;;;25.50;97.30;;;;;;4993120;28;20073;-80
2023/08/15 08:33:56;;;;;;;3.90;0.75;;;25.70;97.50;;;;;;5002632;28;20041;-74
2023/08/15 08:36:22;;;;;;;4.88;0.95;;;28.70;98.20;;;;;;5001573;28;20045;-80
2023/08/15 08:38:47;;;;;;;3.72;1.13;;;25.10;98.60;;;;;;4980750;28;20115;-80
2023/08/15 08:41:13;;;;;;;4.57;0.95;;;25.10;97.40;;;;;;4992902;28;20139;-77
2023/08/15 08:43:39;;;;;;;4.25;0.70;;;24.90;97.70;;;;;;4985166;28;20084;-78
2023/08/15 08:46:08;;;;;;;4.93;0.73;;;24.80;98.20;;;;;;4985273;28;20136;-77
2023/08/15 08:48:35;;;;;;;6.60;0.95;;;24.70;98.10;;;;;;4987049;28;20106;-81
2023/08/15 08:51:02;;;;;;;6.30;1.02;;;24.60;98.40;;;;;;4988056;28;20065;-77
2023/08/15 08:53:27;;;;;;;3.67;0.60;;;24.90;98.70;;;;;;4984846;28;20736;-75
2023/08/15 08:55:54;;;;;;;3.58;0.52;;;25.60;98.70;;;;;;4968493;28;20119;-74
2023/08/15 08:58:21;;;;;;;3.78;0.80;;;26.50;98.40;;;;;;4985265;28;20056;-74
2023/08/15 09:00:48;;;;;;;6.57;0.70;;;27.30;97.40;;;;;;4985066;28;20053;-75
2023/08/15 09:03:14;;;;;;;3.67;0.85;;;27.80;95.80;;;;;;4991221;28;20107;-75
2023/08/15 09:05:41;;;;;;;3.28;0.60;;;28.10;95.20;;;;;;4990206;28;20129;-74
2023/08/15 09:08:07;;;;;;;5.03;0.60;;;28.80;94.90;;;;;;4984894;28;20049;-81
2023/08/15 09:10:33;;;;;;;5.20;0.70;;;29.40;93.70;;;;;;4984089;28;20505;-77
2023/08/15 09:13:00;;;;;;;6.68;1.08;;;29.20;92.20;;;;;;4985986;28;20050;-75
2023/08/15 09:15:26;;;;;;;5.47;0.95;;;27.90;92.90;;;;;;4982806;28;20077;-75
2023/08/15 09:17:58;;;;;;;4.22;0.85;;;27.80;92.20;;;;;;4966850;28;20048;-74
2023/08/15 09:20:25;;;;;;;3.40;0.70;;;27.40;92.70;;;;;;4986219;28;20482;-73
2023/08/15 09:22:51;;;;;;;5.03;0.75;;;26.90;95.40;;;;;;4982731;28;20108;-77
2023/08/15 09:25:17;;;;;;;5.53;0.63;;;27.00;95.80;;;;;;4984166;28;20081;-74
2023/08/15 09:27:44;;;;;;;4.50;0.63;;;27.60;95.60;;;;;;4984116;28;20060;-74
2023/08/15 09:30:14;;;;;;;5.82;0.70;;;27.30;94.00;;;;;;4996967;28;20053;-73
2023/08/15 09:32:42;;;;;;;5.68;1.48;;;27.70;94.50;;;;;;4968032;28;20046;-77
2023/08/15 09:35:09;;;;;;;6.72;1.38;;;28.20;94.30;;;;;;4984239;28;20056;-78
2023/08/15 09:37:40;;;;;;;5.65;0.50;;;28.60;93.90;;;;;;4968489;28;20064;-78
2023/08/15 09:40:08;;;;;;;6.20;1.45;;;29.10;94.40;;;;;;4968584;28;20073;-79
2023/08/15 09:42:35;;;;;;;2.95;0.50;;;29.10;92.80;;;;;;4984740;28;20592;-78
2023/08/15 09:45:02;;;;;;;2.95;0.50;;;29.20;92.00;;;;;;4968409;28;20050;-76
2023/08/15 09:47:28;;;;;;;4.55;0.88;;;29.40;91.50;;;;;;4984102;28;20064;-79
2023/08/15 09:49:55;;;;;;;2.78;0.50;;;29.00;91.00;;;;;;4984526;28;20053;-77
2023/08/15 09:52:22;;;;;;;3.38;0.85;;;28.40;91.40;;;;;;4967001;28;20062;-79
2023/08/15 09:54:48;;;;;;;4.05;0.60;;;28.10;92.10;;;;;;4958309;28;20050;-79
2023/08/15 09:57:14;;;;;;;2.80;0.45;;;28.10;92.40;;;;;;4993755;28;20049;-77
2023/08/15 09:59:40;;;;;;;4.60;0.82;;;28.10;92.00;;;;;;4985426;28;20111;-78
2023/08/15 10:02:26;;;;;;;5.32;0.80;;;27.80;91.80;;;;;;4989109;28;20139;-76
2023/08/15 10:05:00;;;;;;;2.85;0.57;;;27.60;92.10;;;;;;4982428;28;20510;-76
2023/08/15 10:07:32;;;;;;;4.03;0.85;;;27.60;92.90;;;;;;4987214;28;20050;-77
2023/08/15 10:10:03;;;;;;;3.30;0.50;;;27.60;92.40;;;;;;4966318;28;20061;-76
2023/08/15 10:12:30;;;;;;;6.55;1.00;;;27.30;92.10;;;;;;4965438;28;20113;-77
2023/08/15 10:14:58;;;;;;;4.90;1.00;;;26.80;92.40;;;;;;4982974;28;20149;-76
2023/08/15 10:17:29;;;;;;;4.60;0.50;;;26.40;92.80;;;;;;4966406;28;20064;-76
2023/08/15 10:20:12;;;;;;;3.22;0.50;;;25.50;93.00;;;;;;4969182;28;20443;-75
2023/08/15 10:22:40;;;;;;;5.10;0.88;;;25.50;93.10;;;;;;4992774;28;20463;-75
2023/08/15 10:25:27;;;;;;;4.43;0.40;;;24.90;96.40;;;;;;4984181;28;20080;-80
2023/08/15 10:27:54;;;;;;;3.25;0.65;;;24.80;94.80;;;;;;4987712;28;20052;-75
2023/08/15 10:30:37;;;;;;;4.55;0.93;;;24.50;96.80;;;;;;4983200;28;20050;-77
2023/08/15 10:33:16;;;;;;;5.82;0.80;;;24.50;95.30;;;;;;4983524;28;20057;-77
2023/08/15 10:35:54;;;;;;;3.75;0.50;;;24.20;97.60;;;;;;4984965;28;20049;-78
2023/08/15 10:38:43;;;;;;;3.45;0.68;;;23.90;98.30;;;;;;5007165;28;21418;-76
2023/08/15 10:41:20;;;;;;;7.35;1.80;;;24.00;98.90;;;;;;4988337;28;20068;-79
2023/08/15 10:43:52;;;;;;;3.38;0.82;;;24.10;98.70;;;;;;4984935;28;20801;-78
2023/08/15 10:46:24;;;;;;;4.50;0.80;;;24.40;97.30;;;;;;4983136;28;20049;-78
2023/08/15 10:48:52;;;;;;;4.65;1.00;;;24.60;96.70;;;;;;4994075;28;20140;-80
2023/08/15 10:51:24;;;;;;;5.18;0.68;;;24.70;97.10;;;;;;5004104;28;20045;-83
2023/08/15 10:53:50;;;;;;;4.90;0.90;;;;;;;;;;4976753;28;20048;-85
2023/08/15 10:56:23;;;;;;;5.03;0.93;;;24.60;96.90;;;;;;4988260;28;20069;-76
2023/08/15 10:58:50;;;;;;;3.38;0.80;;;24.70;97.20;;;;;;4979730;28;20049;-83
2023/08/15 11:01:20;;;;;;;7.32;1.17;;;24.50;99.70;;;;;;4994696;28;20631;-77
2023/08/15 11:03:47;;;;;;;2.90;0.90;;;25.00;99.90;;;;;;5012602;28;20048;-77
2023/08/15 11:06:14;;;;;;;4.60;1.10;;;24.70;98.30;;;;;;4991523;28;20085;-84
2023/08/15 11:08:56;;;;;;;5.15;1.20;;;24.70;98.30;;;;;;4992026;28;20061;-81
2023/08/15 11:11:23;;;;;;;5.15;1.20;;;24.70;98.50;;;;;;4989755;28;20069;-82
2023/08/15 11:13:51;;;;;;;4.45;1.15;;;24.70;98.70;;;;;;4986666;28;20068;-79
2023/08/15 11:16:20;;;;;;;2.92;1.00;;;24.80;99.90;;;;;;4972452;28;20100;-82
2023/08/15 11:18:47;;;;;;;3.83;1.00;;;24.70;99.90;;;;;;4989542;28;20626;-82
2023/08/15 11:21:15;;;;;;;4.63;1.02;;;24.70;98.60;;;;;;4988719;28;20125;-84
2023/08/15 11:23:41;;;;;;;6.28;1.33;;;24.70;98.60;;;;;;4970568;28;20052;-80
2023/08/15 11:26:13;;;;;;;2.38;0.60;;;24.70;98.50;;;;;;4984752;28;20240;-77
2023/08/15 11:28:39;;;;;;;4.30;1.10;;;24.80;99.90;;;;;;4981814;28;20060;-78
2023/08/15 11:31:09;;;;;;;3.75;0.70;;;24.90;98.10;;;;;;4984771;28;20403;-79
2023/08/15 11:33:35;;;;;;;3.05;0.50;;;25.00;98.30;;;;;;4968585;28;20041;-75
2023/08/15 11:36:06;;;;;;;5.10;0.82;;;24.70;99.10;;;;;;4968455;28;20080;-77
2023/08/15 11:38:33;;;;;;;4.20;0.60;;;24.50;99.40;;;;;;4986000;28;20128;-80
2023/08/15 11:41:01;;;;;;;5.80;0.70;;;24.60;97.80;;;;;;4978971;28;20053;-78
2023/08/15 11:43:28;;;;;;;1.75;0.52;;;24.10;97.50;;;;;;4986429;28;20054;-82
2023/08/15 11:45:54;;;;;;;3.58;0.95;;;23.80;99.90;;;;;;4985852;28;20076;-78
2023/08/15 11:48:21;;;;;;;3.40;0.57;;;24.00;98.60;;;;;;4985486;28;20841;-76
2023/08/15 11:50:47;;;;;;;4.93;1.02;;;;;;;;;;4986002;28;20049;-77
2023/08/15 11:53:18;;;;;;;4.22;0.70;;;24.10;99.20;;;;;;4992589;28;20053;-76
2023/08/15 11:55:46;;;;;;;2.33;0.60;;;20.40;97.30;;;;;;4969722;28;20129;-76
2023/08/15 11:58:29;;;;;;;6.03;1.65;;;24.40;98.80;;;;;;4968477;28;20081;-76
2023/08/15 12:01:16;;;;;;;4.80;0.63;;;24.10;98.00;;;;;;4968955;28;20427;-76
2023/08/15 12:03:42;;;;;;;3.97;0.75;;;24.10;99.90;;;;;;4984220;28;20107;-80
2023/08/15 12:06:14;;;;;;;3.75;0.88;;;24.40;99.90;;;;;;4984212;28;20046;-83
2023/08/15 12:08:43;;;;;;;3.92;0.90;;;24.40;99.20;;;;;;4968406;28;20415;-80
2023/08/15 12:11:11;;;;;;;4.65;0.70;;;;;;;;;;4984829;28;20076;-78
2023/08/15 12:13:41;;;;;;;7.43;1.05;;;24.50;98.20;;;;;;4984644;28;20089;-81
2023/08/15 12:16:08;;;;;;;5.70;0.82;;;24.40;97.90;;;;;;4984439;28;20544;-81
2023/08/15 12:18:35;;;;;;;3.30;0.50;;;;;;;;;;4976872;28;20062;-79
2023/08/15 12:21:02;;;;;;;4.10;0.82;;;24.50;97.90;;;;;;4990504;28;20088;-75
2023/08/15 12:23:29;;;;;;;6.03;1.00;;;;;;;;;;4975000;28;20046;-79
2023/08/15 12:25:55;;;;;;;6.22;0.80;;;;;;;;;;4985727;28;20440;-77
2023/08/15 12:28:21;;;;;;;3.38;0.75;;;24.50;99.90;;;;;;4985432;28;20085;-77
2023/08/15 12:30:46;;;;;;;4.30;0.77;;;24.50;99.90;;;;;;4989466;28;20084;-80
2023/08/15 12:33:13;;;;;;;3.40;0.73;;;24.70;99.90;;;;;;4984814;28;20132;-76
2023/08/15 12:35:39;;;;;;;5.82;0.88;;;24.70;99.20;;;;;;4967754;28;20587;-82
2023/08/15 12:38:04;;;;;;;4.25;0.93;;;24.80;99.20;;;;;;4983985;28;20050;-76
2023/08/15 12:40:31;;;;;;;7.57;1.58;;;24.80;99.20;;;;;;4993891;28;20188;-77
2023/08/15 12:43:00;;;;;;;4.53;0.90;;;25.00;99.90;;;;;;4987187;28;20050;-83